Time;durP1;ratioP1;P1;durP2;ratioP2;P2;SDS_P1;SDS_P2;PMS_P1;PMS_P2;Temp;Humidity;BMP_temperature;BMP_pressure;BME280_temperature;BME280_humidity;BME280_pressure;Samples;Min_cycle;Max_cycle;Signal;HPM_P1;HPM_P2
2021/08/23 00:00:38;;;;;;;28.58;18.20;;;18.30;99.90;;;;;;5049969;28;20029;-61
2021/08/23 00:03:05;;;;;;;29.08;19.00;;;18.40;99.90;;;;;;5038132;28;20028;-61
2021/08/23 00:05:31;;;;;;;30.92;19.67;;;18.30;99.90;;;;;;5049625;28;20025;-61
2021/08/23 00:07:57;;;;;;;31.35;19.23;;;18.30;99.90;;;;;;5048670;28;20099;-61
2021/08/23 00:10:22;;;;;;;34.40;21.20;;;18.40;99.90;;;;;;5036457;28;20055;-61
2021/08/23 00:12:48;;;;;;;27.17;18.42;;;18.30;99.90;;;;;;5039472;28;20103;-62
2021/08/23 00:15:16;;;;;;;30.80;19.08;;;18.30;99.90;;;;;;5045534;28;20543;-62
2021/08/23 00:17:42;;;;;;;30.60;20.98;;;18.30;99.90;;;;;;5041816;28;20168;-62
2021/08/23 00:20:10;;;;;;;30.13;19.67;;;18.30;99.90;;;;;;5034800;28;20033;-62
2021/08/23 00:22:46;;;;;;;33.72;20.70;;;18.40;99.90;;;;;;5040085;28;20025;-61
2021/08/23 00:25:12;;;;;;;28.65;20.35;;;18.30;99.90;;;;;;5040881;28;20029;-62
2021/08/23 00:27:38;;;;;;;28.00;20.13;;;18.40;99.90;;;;;;5040647;28;20033;-62
2021/08/23 00:30:05;;;;;;;33.60;21.55;;;18.40;99.90;;;;;;5034231;28;20081;-62
2021/08/23 00:32:31;;;;;;;36.55;22.67;;;18.40;99.90;;;;;;5042295;28;20493;-62
2021/08/23 00:34:57;;;;;;;31.25;20.38;;;18.40;99.90;;;;;;5033475;28;20045;-62
2021/08/23 00:37:23;;;;;;;29.35;20.95;;;18.40;99.90;;;;;;5047256;28;20033;-62
2021/08/23 00:39:48;;;;;;;25.35;18.83;;;18.40;99.90;;;;;;5035895;28;20124;-62
2021/08/23 00:42:14;;;;;;;32.30;20.95;;;18.40;99.90;;;;;;5043483;28;20043;-62
2021/08/23 00:44:41;;;;;;;34.28;22.58;;;18.50;99.90;;;;;;5052825;28;20033;-62
2021/08/23 00:47:07;;;;;;;29.75;20.38;;;18.50;99.90;;;;;;5037602;28;20493;-62
2021/08/23 00:49:36;;;;;;;27.17;20.30;;;18.50;99.90;;;;;;5033467;28;20057;-62
2021/08/23 00:52:07;;;;;;;31.40;20.10;;;18.50;99.90;;;;;;5035548;28;20034;-62
2021/08/23 00:54:34;;;;;;;31.60;20.63;;;18.50;99.90;;;;;;5041961;28;20029;-62
2021/08/23 00:57:01;;;;;;;27.73;19.85;;;18.40;99.90;;;;;;5052397;28;20052;-61
2021/08/23 00:59:29;;;;;;;32.47;20.98;;;18.40;99.90;;;;;;5050446;28;20374;-61
2021/08/23 01:02:07;;;;;;;33.75;21.85;;;18.40;99.90;;;;;;5051425;28;20033;-62
2021/08/23 01:04:46;;;;;;;28.77;19.95;;;18.40;99.90;;;;;;5050714;28;20083;-62
2021/08/23 01:07:14;;;;;;;28.30;20.13;;;18.40;99.90;;;;;;5033042;28;20025;-62
2021/08/23 01:09:46;;;;;;;26.70;19.73;;;18.40;99.90;;;;;;5033379;28;20092;-62
2021/08/23 01:12:13;;;;;;;28.02;19.92;;;18.40;99.90;;;;;;5033128;28;20022;-62
2021/08/23 01:14:38;;;;;;;29.70;19.63;;;18.40;99.90;;;;;;5033439;28;20083;-62
2021/08/23 01:17:05;;;;;;;31.15;18.88;;;18.40;99.90;;;;;;5052166;28;20025;-62
2021/08/23 01:19:31;;;;;;;27.65;17.88;;;18.40;99.90;;;;;;5032805;28;20045;-62
2021/08/23 01:22:01;;;;;;;28.50;20.35;;;18.40;99.90;;;;;;5051845;28;20033;-62
2021/08/23 01:24:30;;;;;;;22.52;16.35;;;18.40;99.90;;;;;;5051893;28;20041;-62
2021/08/23 01:26:58;;;;;;;24.98;17.92;;;18.40;99.90;;;;;;5050011;28;20025;-62
2021/08/23 01:29:31;;;;;;;26.80;17.83;;;18.40;99.90;;;;;;5053177;28;20458;-62
2021/08/23 01:32:15;;;;;;;27.77;19.08;;;18.40;99.90;;;;;;5050307;28;20043;-62
2021/08/23 01:34:43;;;;;;;27.42;18.60;;;18.30;99.90;;;;;;5051636;28;20024;-62
2021/08/23 01:37:12;;;;;;;24.70;18.75;;;18.30;99.90;;;;;;5036628;28;20033;-62
2021/08/23 01:39:39;;;;;;;26.38;18.05;;;18.30;99.90;;;;;;5044710;28;20042;-62
2021/08/23 01:42:05;;;;;;;23.15;17.20;;;18.30;99.90;;;;;;5044408;28;20022;-61
2021/08/23 01:44:31;;;;;;;24.08;17.50;;;18.30;99.90;;;;;;5032555;28;20040;-62
2021/08/23 01:46:56;;;;;;;23.98;18.08;;;18.30;99.90;;;;;;5033274;28;20331;-62
2021/08/23 01:49:22;;;;;;;25.90;17.65;;;18.30;99.90;;;;;;5036676;28;20037;-62
2021/08/23 01:51:47;;;;;;;23.77;18.73;;;18.30;99.90;;;;;;5052273;28;20041;-61
2021/08/23 01:54:13;;;;;;;22.50;17.20;;;18.30;99.90;;;;;;5048556;28;20025;-62
2021/08/23 01:56:38;;;;;;;23.25;17.25;;;18.20;99.90;;;;;;5032490;28;20024;-62
2021/08/23 01:59:04;;;;;;;17.80;15.30;;;18.20;99.90;;;;;;5047152;28;20048;-62
2021/08/23 02:01:31;;;;;;;21.67;16.90;;;18.20;99.90;;;;;;5034318;28;20331;-62
2021/08/23 02:03:58;;;;;;;20.45;16.38;;;18.20;99.90;;;;;;5038653;28;20061;-62
2021/08/23 02:06:24;;;;;;;18.92;14.52;;;18.20;99.90;;;;;;5052388;28;20096;-62
2021/08/23 02:08:51;;;;;;;22.27;17.42;;;18.20;99.90;;;;;;5050183;28;20578;-62
2021/08/23 02:11:16;;;;;;;21.80;16.17;;;18.20;99.90;;;;;;5052049;28;20043;-62
2021/08/23 02:13:42;;;;;;;19.23;14.98;;;18.20;99.90;;;;;;5041427;28;20159;-62
2021/08/23 02:16:08;;;;;;;23.13;15.50;;;18.20;99.90;;;;;;5032074;28;20547;-62
2021/08/23 02:18:33;;;;;;;24.85;15.90;;;18.20;99.90;;;;;;5039420;28;20025;-62
2021/08/23 02:20:59;;;;;;;20.33;15.18;;;18.10;99.90;;;;;;5051533;28;20056;-62
2021/08/23 02:23:25;;;;;;;23.83;16.45;;;18.20;99.90;;;;;;5043738;28;20017;-62
2021/08/23 02:25:51;;;;;;;21.92;15.18;;;18.20;99.90;;;;;;5050524;28;20116;-62
2021/08/23 02:28:17;;;;;;;21.65;15.15;;;18.20;99.90;;;;;;5044983;28;20029;-62
2021/08/23 02:30:42;;;;;;;22.05;16.15;;;18.20;99.90;;;;;;5033941;28;20036;-62
2021/08/23 02:33:08;;;;;;;23.88;17.30;;;18.20;99.90;;;;;;5031550;28;20026;-62
2021/08/23 02:35:33;;;;;;;22.08;15.57;;;18.20;99.90;;;;;;5047724;28;20116;-62
2021/08/23 02:37:59;;;;;;;17.58;14.35;;;18.20;99.90;;;;;;5045559;28;20072;-62
2021/08/23 02:40:25;;;;;;;20.58;14.68;;;18.20;99.90;;;;;;5050221;28;20045;-62
2021/08/23 02:42:50;;;;;;;17.13;13.32;;;18.20;99.90;;;;;;5037713;28;20044;-62
2021/08/23 02:45:16;;;;;;;19.20;14.65;;;18.20;99.90;;;;;;5036067;28;20535;-63
2021/08/23 02:47:42;;;;;;;19.23;13.93;;;18.20;99.90;;;;;;5031306;28;20025;-62
2021/08/23 02:50:09;;;;;;;18.45;13.15;;;18.20;99.90;;;;;;5043458;28;20110;-62
2021/08/23 02:52:35;;;;;;;11.73;9.98;;;18.20;99.90;;;;;;5049365;28;20033;-62
2021/08/23 02:55:03;;;;;;;13.25;10.88;;;18.20;99.90;;;;;;5049709;28;20033;-62
2021/08/23 02:57:28;;;;;;;16.83;11.00;;;18.10;99.90;;;;;;5049845;28;20052;-62
2021/08/23 02:59:54;;;;;;;12.30;10.27;;;18.10;99.90;;;;;;5048023;28;20037;-62
2021/08/23 03:02:19;;;;;;;13.18;9.73;;;18.10;99.90;;;;;;5043744;28;20424;-62
2021/08/23 03:04:45;;;;;;;8.27;6.93;;;18.10;99.90;;;;;;5031396;28;20371;-61
2021/08/23 03:07:10;;;;;;;6.35;5.47;;;18.00;99.90;;;;;;5031160;28;20417;-62
2021/08/23 03:09:36;;;;;;;8.93;6.60;;;18.10;99.90;;;;;;5037309;28;20036;-62
2021/08/23 03:12:02;;;;;;;12.10;6.50;;;18.10;99.90;;;;;;5050036;28;20017;-62
2021/08/23 03:14:27;;;;;;;10.18;7.65;;;18.10;99.90;;;;;;5030833;28;20029;-61
2021/08/23 03:16:53;;;;;;;6.30;5.43;;;18.00;99.90;;;;;;5030786;28;20037;-61
2021/08/23 03:19:18;;;;;;;6.82;5.50;;;17.90;99.90;;;;;;5032444;28;20044;-61
2021/08/23 03:21:44;;;;;;;6.05;5.15;;;17.90;99.90;;;;;;5030889;28;20101;-61
2021/08/23 03:24:11;;;;;;;5.47;4.82;;;17.80;99.90;;;;;;5033870;28;20623;-61
2021/08/23 03:26:37;;;;;;;6.43;5.15;;;17.80;99.90;;;;;;5050976;28;20025;-62
2021/08/23 03:29:02;;;;;;;7.63;6.32;;;17.70;99.90;;;;;;5042370;28;20500;-62
2021/08/23 03:31:28;;;;;;;7.47;5.65;;;17.60;99.90;;;;;;5049142;28;20500;-62
2021/08/23 03:33:53;;;;;;;8.95;6.47;;;17.60;99.90;;;;;;5049000;28;20090;-62
2021/08/23 03:36:19;;;;;;;7.43;6.00;;;17.50;99.90;;;;;;5044930;28;20453;-62
2021/08/23 03:38:47;;;;;;;6.45;5.60;;;17.50;99.90;;;;;;5047377;28;20032;-62
2021/08/23 03:41:13;;;;;;;6.90;5.72;;;17.40;99.90;;;;;;5030547;28;20030;-62
2021/08/23 03:43:39;;;;;;;8.95;6.63;;;17.40;99.90;;;;;;5049321;28;20021;-62
2021/08/23 03:46:04;;;;;;;7.47;6.30;;;17.40;99.90;;;;;;5048927;28;20032;-62
2021/08/23 03:48:30;;;;;;;8.07;6.13;;;17.40;99.90;;;;;;5049949;28;20422;-62
2021/08/23 03:50:55;;;;;;;7.72;5.93;;;17.30;99.90;;;;;;5049079;28;20127;-62
2021/08/23 03:53:21;;;;;;;8.90;6.82;;;17.20;99.90;;;;;;5050161;28;20036;-62
2021/08/23 03:55:46;;;;;;;8.65;6.80;;;17.20;99.90;;;;;;5048917;28;20075;-62
2021/08/23 03:58:12;;;;;;;10.77;7.97;;;17.20;99.90;;;;;;5031379;28;20026;-62
2021/08/23 04:00:37;;;;;;;9.43;6.97;;;17.10;99.90;;;;;;5030739;28;20045;-62
2021/08/23 04:03:03;;;;;;;9.35;7.60;;;17.10;99.90;;;;;;5040573;28;20410;-62
2021/08/23 04:05:28;;;;;;;10.90;7.28;;;17.10;99.90;;;;;;5046660;28;20116;-62
2021/08/23 04:07:54;;;;;;;11.20;8.15;;;17.10;99.90;;;;;;5044443;28;20029;-62
2021/08/23 04:10:19;;;;;;;12.57;8.68;;;17.10;99.90;;;;;;5047619;28;20021;-62
2021/08/23 04:12:45;;;;;;;9.50;7.43;;;17.00;99.90;;;;;;5052172;28;20040;-62
2021/08/23 04:15:11;;;;;;;12.88;8.60;;;17.00;99.90;;;;;;5050546;28;20367;-62
2021/08/23 04:17:36;;;;;;;12.32;9.38;;;17.00;99.90;;;;;;5042768;28;20037;-62
2021/08/23 04:20:03;;;;;;;10.05;7.82;;;17.00;99.90;;;;;;5045556;28;20235;-65
2021/08/23 04:22:29;;;;;;;11.85;8.30;;;17.00;99.90;;;;;;5045166;28;20045;-63
2021/08/23 04:24:55;;;;;;;9.70;7.88;;;16.90;99.90;;;;;;5044587;28;20021;-63
2021/08/23 04:27:20;;;;;;;11.07;8.68;;;16.90;99.90;;;;;;5046094;28;20413;-63
2021/08/23 04:29:46;;;;;;;12.35;8.50;;;16.80;99.90;;;;;;5034327;28;20022;-64
2021/08/23 04:32:11;;;;;;;10.25;7.85;;;16.70;99.90;;;;;;5033815;28;20022;-64
2021/08/23 04:34:36;;;;;;;12.65;9.23;;;16.70;99.90;;;;;;5028442;28;20021;-64
2021/08/23 04:37:05;;;;;;;12.18;8.05;;;16.70;99.90;;;;;;5051456;28;20413;-64
2021/08/23 04:39:32;;;;;;;12.95;8.38;;;16.60;99.90;;;;;;5051153;28;20132;-64
2021/08/23 04:41:57;;;;;;;11.32;7.75;;;16.60;99.90;;;;;;5049234;28;20062;-64
2021/08/23 04:44:23;;;;;;;10.40;7.55;;;16.50;99.90;;;;;;5051473;28;20063;-64
2021/08/23 04:46:50;;;;;;;14.32;8.55;;;16.50;99.90;;;;;;5052834;28;20104;-64
2021/08/23 04:49:16;;;;;;;11.52;7.72;;;16.50;99.90;;;;;;5051607;28;20029;-64
2021/08/23 04:51:42;;;;;;;15.18;7.47;;;16.40;99.90;;;;;;5051986;28;20182;-64
2021/08/23 04:54:07;;;;;;;11.45;6.82;;;16.40;99.90;;;;;;5051647;28;20052;-64
2021/08/23 04:56:33;;;;;;;10.40;7.38;;;16.40;99.90;;;;;;5037404;28;20033;-64
2021/08/23 04:58:58;;;;;;;9.40;6.35;;;16.40;99.90;;;;;;5035204;28;20018;-64
2021/08/23 05:01:24;;;;;;;9.70;6.35;;;16.30;99.90;;;;;;5049332;28;20032;-64
2021/08/23 05:03:49;;;;;;;9.30;6.90;;;16.30;99.90;;;;;;5044069;28;20392;-64
2021/08/23 05:06:15;;;;;;;11.15;7.00;;;16.30;99.90;;;;;;5050848;28;20037;-64
2021/08/23 05:08:40;;;;;;;10.30;7.40;;;16.30;99.90;;;;;;5039854;28;20478;-64
2021/08/23 05:11:06;;;;;;;8.27;6.40;;;16.30;99.90;;;;;;5031126;28;20175;-64
2021/08/23 05:13:32;;;;;;;8.07;6.40;;;16.30;99.90;;;;;;5034163;28;20060;-65
2021/08/23 05:15:57;;;;;;;8.68;6.63;;;16.20;99.90;;;;;;5040180;28;20119;-65
2021/08/23 05:18:23;;;;;;;7.03;5.82;;;16.20;99.90;;;;;;5050183;28;20461;-65
2021/08/23 05:20:49;;;;;;;8.20;5.63;;;16.20;99.90;;;;;;5050652;28;20478;-65
2021/08/23 05:23:14;;;;;;;7.68;5.55;;;16.20;99.90;;;;;;5050587;28;20111;-65
2021/08/23 05:25:40;;;;;;;9.38;6.00;;;16.20;99.90;;;;;;5051643;28;20079;-65
2021/08/23 05:28:06;;;;;;;9.30;5.30;;;16.20;99.90;;;;;;5049858;28;20033;-65
2021/08/23 05:30:31;;;;;;;7.90;5.13;;;16.20;99.90;;;;;;5047357;28;20033;-65
2021/08/23 05:32:57;;;;;;;7.38;5.40;;;16.10;99.90;;;;;;5051897;28;20021;-65
2021/08/23 05:35:23;;;;;;;7.15;4.97;;;16.10;99.90;;;;;;5045889;28;20039;-65
2021/08/23 05:37:49;;;;;;;8.13;4.45;;;16.10;99.90;;;;;;5041062;28;20420;-65
2021/08/23 05:40:16;;;;;;;10.55;5.70;;;16.10;99.90;;;;;;5046479;28;20041;-66
2021/08/23 05:42:46;;;;;;;6.90;4.68;;;16.20;99.90;;;;;;5040823;28;20117;-66
2021/08/23 05:45:11;;;;;;;8.30;5.18;;;16.10;99.90;;;;;;5046349;28;20372;-66
2021/08/23 05:47:37;;;;;;;8.68;5.05;;;16.10;99.90;;;;;;5052573;28;20013;-65
2021/08/23 05:50:03;;;;;;;5.78;4.70;;;16.00;99.90;;;;;;5031706;28;20056;-65
2021/08/23 05:52:29;;;;;;;7.35;4.53;;;16.00;99.90;;;;;;5039255;28;20105;-65
2021/08/23 05:54:54;;;;;;;7.05;4.47;;;16.00;99.90;;;;;;5041512;28;20124;-65
2021/08/23 05:57:21;;;;;;;6.63;4.53;;;16.10;99.90;;;;;;5052089;28;20056;-65
2021/08/23 05:59:46;;;;;;;6.88;4.28;;;16.00;99.90;;;;;;5044436;28;20033;-65
2021/08/23 06:02:12;;;;;;;6.53;4.63;;;16.10;99.90;;;;;;5036995;28;20028;-65
2021/08/23 06:04:37;;;;;;;7.05;5.15;;;16.00;99.90;;;;;;5046898;28;20112;-65
2021/08/23 06:07:05;;;;;;;5.35;3.88;;;16.00;99.90;;;;;;5036513;28;20017;-66
2021/08/23 06:09:31;;;;;;;6.38;4.47;;;16.10;99.90;;;;;;5037990;28;20031;-65
2021/08/23 06:11:56;;;;;;;6.40;4.60;;;16.10;99.90;;;;;;5037010;28;20021;-66
2021/08/23 06:14:22;;;;;;;6.70;4.20;;;16.10;99.90;;;;;;5042335;28;20108;-66
2021/08/23 06:16:47;;;;;;;7.50;4.07;;;16.10;99.90;;;;;;5042892;28;20473;-67
2021/08/23 06:19:13;;;;;;;5.22;3.90;;;16.10;99.90;;;;;;5045196;28;20033;-66
2021/08/23 06:21:38;;;;;;;6.45;3.83;;;16.10;99.90;;;;;;5041514;28;20108;-66
2021/08/23 06:24:04;;;;;;;6.63;4.13;;;16.10;99.90;;;;;;5047901;28;20032;-67
2021/08/23 06:26:29;;;;;;;5.72;4.15;;;16.10;99.90;;;;;;5032364;28;20022;-67
2021/08/23 06:28:55;;;;;;;8.30;4.20;;;16.20;99.90;;;;;;5034177;28;20031;-67
2021/08/23 06:31:20;;;;;;;6.47;4.15;;;16.10;99.90;;;;;;5041105;28;20472;-67
2021/08/23 06:33:46;;;;;;;5.88;3.95;;;16.10;99.90;;;;;;5031652;28;20083;-67
2021/08/23 06:36:11;;;;;;;9.88;5.65;;;16.10;99.90;;;;;;5041256;28;20021;-67
2021/08/23 06:38:37;;;;;;;6.70;5.00;;;16.20;99.90;;;;;;5041655;28;20127;-67
2021/08/23 06:41:02;;;;;;;6.88;5.22;;;16.20;99.90;;;;;;5034976;28;20029;-67
2021/08/23 06:43:28;;;;;;;5.93;4.25;;;16.30;99.90;;;;;;5039909;28;20386;-67
2021/08/23 06:45:53;;;;;;;5.35;3.55;;;16.30;99.90;;;;;;5047922;28;21626;-68
2021/08/23 06:48:19;;;;;;;5.85;4.30;;;16.40;99.90;;;;;;5039959;28;20367;-67
2021/08/23 06:50:44;;;;;;;5.43;4.50;;;16.40;99.90;;;;;;5037087;28;20120;-67
2021/08/23 06:53:10;;;;;;;6.00;4.22;;;16.40;99.90;;;;;;5029175;28;20017;-67
2021/08/23 06:55:36;;;;;;;6.05;4.13;;;16.50;99.90;;;;;;5047686;28;20386;-67
2021/08/23 06:58:01;;;;;;;7.70;4.28;;;16.50;99.90;;;;;;5036366;28;20111;-67
2021/08/23 07:00:27;;;;;;;6.68;4.03;;;16.50;99.90;;;;;;5046788;28;20284;-68
2021/08/23 07:02:53;;;;;;;5.28;4.00;;;16.50;99.90;;;;;;5045529;28;20106;-68
2021/08/23 07:05:18;;;;;;;5.75;4.22;;;16.50;99.90;;;;;;5044901;28;20461;-66
2021/08/23 07:07:44;;;;;;;5.72;4.07;;;16.50;99.90;;;;;;5039878;28;20473;-68
2021/08/23 07:10:12;;;;;;;6.68;4.57;;;16.60;99.90;;;;;;5033992;28;20028;-67
2021/08/23 07:12:38;;;;;;;6.55;4.88;;;16.60;99.90;;;;;;5041565;28;20021;-67
2021/08/23 07:15:04;;;;;;;6.32;4.45;;;16.60;99.90;;;;;;5035337;28;20021;-67
2021/08/23 07:17:30;;;;;;;12.02;4.05;;;16.60;99.90;;;;;;5016997;28;20047;-66
2021/08/23 07:19:55;;;;;;;6.30;4.70;;;16.50;99.90;;;;;;5043943;28;20041;-69
2021/08/23 07:22:22;;;;;;;5.63;3.80;;;16.50;99.90;;;;;;5043643;28;20029;-67
2021/08/23 07:24:47;;;;;;;7.03;4.78;;;16.50;99.90;;;;;;5036686;28;20033;-66
2021/08/23 07:27:14;;;;;;;5.53;4.32;;;16.40;99.90;;;;;;5037091;28;20098;-66
2021/08/23 07:29:40;;;;;;;7.18;3.65;;;16.40;99.90;;;;;;5034114;28;20030;-67
2021/08/23 07:32:06;;;;;;;6.47;4.25;;;16.40;99.90;;;;;;5038326;28;20025;-67
2021/08/23 07:34:31;;;;;;;7.05;4.57;;;16.40;99.90;;;;;;5044350;28;20036;-67
2021/08/23 07:36:57;;;;;;;5.40;4.43;;;16.40;99.90;;;;;;5041535;28;20033;-67
2021/08/23 07:39:22;;;;;;;6.32;3.67;;;16.40;99.90;;;;;;5039248;28;20380;-67
2021/08/23 07:41:48;;;;;;;7.20;4.25;;;16.40;99.90;;;;;;5037189;28;20021;-67
2021/08/23 07:44:14;;;;;;;7.68;5.03;;;16.40;99.90;;;;;;5030332;28;20417;-67
2021/08/23 07:46:39;;;;;;;7.43;4.47;;;16.40;99.90;;;;;;5048853;28;20189;-68
2021/08/23 07:49:05;;;;;;;7.07;4.70;;;16.40;99.90;;;;;;5047962;28;20025;-68
2021/08/23 07:51:31;;;;;;;8.43;4.57;;;16.40;99.90;;;;;;5044828;28;20038;-68
2021/08/23 07:53:56;;;;;;;5.50;3.80;;;16.40;99.90;;;;;;5040524;28;20067;-67
2021/08/23 07:56:22;;;;;;;7.50;4.38;;;16.40;99.90;;;;;;5040517;28;20025;-67
2021/08/23 07:58:47;;;;;;;6.68;5.00;;;16.40;99.90;;;;;;5048218;28;20032;-67
2021/08/23 08:01:13;;;;;;;5.82;4.57;;;16.40;99.90;;;;;;5048816;28;20529;-68
2021/08/23 08:03:39;;;;;;;7.00;4.07;;;16.40;99.90;;;;;;5047914;28;20030;-66
2021/08/23 08:06:05;;;;;;;5.13;3.72;;;16.30;99.90;;;;;;5043536;28;20031;-67
2021/08/23 08:08:30;;;;;;;7.05;4.60;;;16.30;99.90;;;;;;5041404;28;20399;-67
2021/08/23 08:10:57;;;;;;;6.35;4.10;;;16.30;99.90;;;;;;5037494;28;20044;-66
2021/08/23 08:13:24;;;;;;;8.63;5.30;;;16.30;99.90;;;;;;5042105;28;20433;-67
2021/08/23 08:15:50;;;;;;;7.40;4.22;;;16.30;99.90;;;;;;5041423;28;20773;-66
2021/08/23 08:18:15;;;;;;;6.78;4.20;;;16.20;99.90;;;;;;5040789;28;20025;-67
2021/08/23 08:20:41;;;;;;;6.22;4.53;;;16.20;99.90;;;;;;5041108;28;20034;-67
2021/08/23 08:23:06;;;;;;;6.80;3.70;;;16.20;99.90;;;;;;5044102;28;20028;-66
2021/08/23 08:25:32;;;;;;;7.28;4.95;;;16.10;99.90;;;;;;5049803;28;20051;-67
2021/08/23 08:27:57;;;;;;;7.00;4.18;;;16.00;99.90;;;;;;5040978;28;20051;-67
2021/08/23 08:30:24;;;;;;;6.13;3.60;;;16.00;99.90;;;;;;5045265;28;20056;-66
2021/08/23 08:32:50;;;;;;;6.13;3.47;;;16.00;99.90;;;;;;5040260;28;20462;-66
2021/08/23 08:35:15;;;;;;;6.45;3.85;;;15.90;99.90;;;;;;5045145;28;20128;-66
2021/08/23 08:37:41;;;;;;;5.25;3.38;;;15.80;99.90;;;;;;5041105;28;20108;-66
2021/08/23 08:40:09;;;;;;;5.88;4.15;;;15.90;99.90;;;;;;5039021;28;20124;-68
2021/08/23 08:42:34;;;;;;;5.85;3.92;;;15.90;99.90;;;;;;5038286;28;20021;-65
2021/08/23 08:45:03;;;;;;;6.18;3.63;;;15.90;99.90;;;;;;5044110;28;20059;-69
2021/08/23 08:47:30;;;;;;;6.00;3.78;;;15.90;99.90;;;;;;5040669;28;20039;-67
2021/08/23 08:49:58;;;;;;;4.88;3.22;;;15.90;99.90;;;;;;5036632;28;20091;-67
2021/08/23 08:52:24;;;;;;;5.28;3.17;;;15.90;99.90;;;;;;5052786;28;20144;-65
2021/08/23 08:54:50;;;;;;;9.15;3.67;;;16.00;99.90;;;;;;5045415;28;20047;-66
2021/08/23 08:57:16;;;;;;;5.25;3.60;;;16.00;99.90;;;;;;5033439;28;20641;-67
2021/08/23 08:59:41;;;;;;;6.97;4.93;;;16.00;99.90;;;;;;5040135;28;20033;-66
2021/08/23 09:02:07;;;;;;;5.82;4.10;;;16.00;99.90;;;;;;5032634;28;20163;-68
2021/08/23 09:04:37;;;;;;;6.45;4.00;;;16.00;99.90;;;;;;5039752;28;20114;-67
2021/08/23 09:07:05;;;;;;;5.25;2.80;;;15.90;99.90;;;;;;5040200;28;20025;-68
2021/08/23 09:09:31;;;;;;;4.25;2.42;;;16.00;99.90;;;;;;5042456;28;20037;-67
2021/08/23 09:12:17;;;;;;;6.63;3.17;;;15.90;99.90;;;;;;5038670;28;20075;-68
2021/08/23 09:14:54;;;;;;;13.85;5.50;;;16.00;99.90;;;;;;5038641;28;20037;-67
2021/08/23 09:17:24;;;;;;;4.55;3.42;;;16.00;99.90;;;;;;5040997;28;20037;-67
2021/08/23 09:20:01;;;;;;;5.38;3.00;;;16.00;99.90;;;;;;5043398;28;20029;-68
2021/08/23 09:22:27;;;;;;;5.38;3.20;;;16.10;99.90;;;;;;5032684;28;20119;-67
2021/08/23 09:24:53;;;;;;;4.82;2.50;;;16.10;99.90;;;;;;5031673;28;20477;-67
2021/08/23 09:27:19;;;;;;;4.70;3.05;;;16.30;99.90;;;;;;5049004;28;20143;-67
2021/08/23 09:30:01;;;;;;;5.38;3.38;;;16.30;99.90;;;;;;5038079;28;20075;-68
2021/08/23 09:32:35;;;;;;;6.40;3.45;;;16.30;99.90;;;;;;5046742;28;20029;-67
2021/08/23 09:35:01;;;;;;;5.50;4.17;;;16.40;99.90;;;;;;5043512;28;20376;-68
2021/08/23 09:37:29;;;;;;;3.72;2.80;;;16.40;99.90;;;;;;5041099;28;20029;-68
2021/08/23 09:39:55;;;;;;;3.80;2.53;;;16.50;99.90;;;;;;5040774;28;20452;-68
2021/08/23 09:42:22;;;;;;;4.60;2.90;;;16.60;99.90;;;;;;5041655;28;20044;-69
2021/08/23 09:44:49;;;;;;;3.70;2.10;;;16.60;99.90;;;;;;5035876;28;20040;-68
2021/08/23 09:47:15;;;;;;;3.38;2.10;;;16.70;99.90;;;;;;5043196;28;20024;-69
2021/08/23 09:49:44;;;;;;;3.72;2.40;;;16.70;99.90;;;;;;5036527;28;20389;-68
2021/08/23 09:52:14;;;;;;;3.92;2.30;;;16.70;99.90;;;;;;5043236;28;20053;-68
2021/08/23 09:54:39;;;;;;;4.90;2.17;;;16.70;99.90;;;;;;5035539;28;20040;-75
2021/08/23 09:57:05;;;;;;;4.30;1.88;;;16.80;99.90;;;;;;5050857;28;20075;-78
2021/08/23 09:59:35;;;;;;;3.92;2.13;;;16.80;99.90;;;;;;5039408;28;20090;-77
2021/08/23 10:02:01;;;;;;;3.10;2.00;;;16.80;99.90;;;;;;5043219;28;20029;-78
2021/08/23 10:04:27;;;;;;;3.45;2.00;;;16.80;99.90;;;;;;5037809;28;20040;-77
2021/08/23 10:06:53;;;;;;;3.88;2.45;;;16.90;99.90;;;;;;5031598;28;20511;-77
2021/08/23 10:09:23;;;;;;;3.53;2.78;;;16.90;99.90;;;;;;5036359;28;20021;-77
2021/08/23 10:11:50;;;;;;;4.28;2.15;;;16.90;99.90;;;;;;5040297;28;20037;-77
2021/08/23 10:14:16;;;;;;;4.38;1.77;;;16.90;99.90;;;;;;5032728;28;20056;-79
2021/08/23 10:16:42;;;;;;;3.70;1.83;;;16.90;99.90;;;;;;5046441;28;20032;-75
2021/08/23 10:19:09;;;;;;;4.85;1.95;;;17.00;99.30;;;;;;5041300;28;20270;-78
2021/08/23 10:21:37;;;;;;;3.67;1.98;;;17.00;97.90;;;;;;5043299;28;20045;-78
2021/08/23 10:24:06;;;;;;;3.38;2.20;;;17.00;98.50;;;;;;5041470;28;20025;-77
2021/08/23 10:26:43;;;;;;;4.45;1.60;;;17.00;98.50;;;;;;5036373;28;20420;-80
2021/08/23 10:29:11;;;;;;;3.15;1.92;;;17.00;98.40;;;;;;5035906;28;20103;-78
2021/08/23 10:31:39;;;;;;;3.80;2.35;;;17.00;98.00;;;;;;5043249;28;20489;-76
2021/08/23 10:34:19;;;;;;;2.85;1.70;;;17.00;97.60;;;;;;5037140;28;20025;-79
2021/08/23 10:36:48;;;;;;;4.13;1.70;;;17.00;97.20;;;;;;5039436;28;20662;-78
2021/08/23 10:39:25;;;;;;;3.50;2.00;;;17.00;97.30;;;;;;5040083;28;20403;-79
2021/08/23 10:41:53;;;;;;;4.18;1.85;;;17.10;97.10;;;;;;5037015;28;20561;-77
2021/08/23 10:44:31;;;;;;;4.70;2.05;;;17.00;97.00;;;;;;5037054;28;20025;-79
2021/08/23 10:47:08;;;;;;;4.35;1.85;;;17.00;97.00;;;;;;5034131;28;20377;-79
2021/08/23 10:49:45;;;;;;;4.78;2.05;;;17.00;97.80;;;;;;5048832;28;20440;-76
2021/08/23 10:52:13;;;;;;;4.20;2.25;;;16.90;98.10;;;;;;5036114;28;20075;-79
2021/08/23 10:54:46;;;;;;;3.70;2.22;;;16.90;98.50;;;;;;5051947;28;20044;-78
2021/08/23 10:57:18;;;;;;;3.58;2.17;;;16.90;98.60;;;;;;5042416;28;20028;-79
2021/08/23 10:59:48;;;;;;;3.42;2.15;;;16.90;99.00;;;;;;5043440;28;20041;-77
2021/08/23 11:02:29;;;;;;;5.32;2.10;;;16.80;99.00;;;;;;5040607;28;20033;-78
2021/08/23 11:05:04;;;;;;;8.20;2.33;;;16.80;99.00;;;;;;5034825;28;20088;-75
2021/08/23 11:07:32;;;;;;;4.18;2.00;;;16.80;99.20;;;;;;5035473;28;20025;-78
2021/08/23 11:10:22;;;;;;;4.57;2.15;;;16.80;99.50;;;;;;5041637;28;20033;-77
2021/08/23 11:12:54;;;;;;;4.50;2.45;;;16.80;99.50;;;;;;5045026;28;20759;-78
2021/08/23 11:15:32;;;;;;;3.88;2.20;;;16.80;99.40;;;;;;5042941;28;20033;-78
2021/08/23 11:18:12;;;;;;;3.85;2.20;;;16.80;99.20;;;;;;5042540;28;20048;-79
2021/08/23 11:20:46;;;;;;;5.78;2.17;;;16.70;99.20;;;;;;5040304;28;20052;-78
2021/08/23 11:23:15;;;;;;;4.45;2.55;;;16.80;99.40;;;;;;5042010;28;20021;-76
2021/08/23 11:25:44;;;;;;;4.43;2.30;;;16.90;99.50;;;;;;5045931;28;20150;-79
2021/08/23 11:28:15;;;;;;;3.72;2.22;;;16.90;99.20;;;;;;5045682;28;20028;-81
2021/08/23 11:30:43;;;;;;;3.60;2.40;;;17.00;99.40;;;;;;5044075;28;20036;-79
2021/08/23 11:33:11;;;;;;;4.40;2.83;;;17.00;99.40;;;;;;5049170;28;20063;-79
2021/08/23 11:35:37;;;;;;;3.83;2.35;;;17.10;99.20;;;;;;5040628;28;20450;-81
2021/08/23 11:38:08;;;;;;;4.30;2.35;;;17.10;98.80;;;;;;5049565;28;20098;-78
2021/08/23 11:40:37;;;;;;;3.92;1.90;;;17.20;98.70;;;;;;5040375;28;20045;-79
2021/08/23 11:43:04;;;;;;;4.35;2.13;;;17.20;98.50;;;;;;5049462;28;20025;-79
2021/08/23 11:45:36;;;;;;;3.95;2.22;;;17.30;98.40;;;;;;5048266;28;20033;-78
2021/08/23 11:48:02;;;;;;;5.50;2.20;;;17.40;98.20;;;;;;5042114;28;20025;-78
2021/08/23 11:50:28;;;;;;;3.72;2.20;;;17.50;98.50;;;;;;5044495;28;20523;-81
2021/08/23 11:53:00;;;;;;;4.80;3.00;;;17.60;98.00;;;;;;5041968;28;20021;-80
2021/08/23 11:55:29;;;;;;;3.63;2.90;;;17.60;98.00;;;;;;5038919;28;20029;-78
2021/08/23 11:57:57;;;;;;;5.68;2.80;;;17.70;97.50;;;;;;5034365;28;20041;-80
2021/08/23 12:00:23;;;;;;;8.80;2.35;;;17.80;97.20;;;;;;5039804;28;20052;-80
2021/08/23 12:02:48;;;;;;;4.43;2.60;;;17.90;96.60;;;;;;5043126;28;20028;-80
2021/08/23 12:05:15;;;;;;;4.55;2.97;;;17.90;96.30;;;;;;5046045;28;20049;-79
2021/08/23 12:07:59;;;;;;;4.05;3.00;;;18.00;95.70;;;;;;5039492;28;20034;-81
2021/08/23 12:10:30;;;;;;;7.15;5.20;;;18.10;96.00;;;;;;5036384;28;20448;-80
2021/08/23 12:13:11;;;;;;;6.82;4.10;;;18.10;96.00;;;;;;5047130;28;20028;-80
2021/08/23 12:15:49;;;;;;;7.07;2.90;;;18.20;95.80;;;;;;5044293;28;20029;-82
2021/08/23 12:18:15;;;;;;;4.32;2.55;;;18.30;95.60;;;;;;5031911;28;20105;-81
2021/08/23 12:20:41;;;;;;;5.97;2.45;;;18.30;95.50;;;;;;5037836;28;20123;-81
2021/08/23 12:23:06;;;;;;;4.97;3.22;;;18.40;95.50;;;;;;5046559;28;20171;-81
2021/08/23 12:25:32;;;;;;;6.75;3.88;;;18.50;95.30;;;;;;5043385;28;20025;-79
2021/08/23 12:27:57;;;;;;;7.20;3.65;;;18.60;94.60;;;;;;5046231;28;20052;-79
2021/08/23 12:30:33;;;;;;;7.53;2.60;;;18.60;95.00;;;;;;5039586;28;20035;-81
2021/08/23 12:32:59;;;;;;;4.13;2.50;;;18.70;94.90;;;;;;5038112;28;20072;-80
2021/08/23 12:35:26;;;;;;;6.78;2.72;;;18.70;95.10;;;;;;5048380;28;20071;-81
2021/08/23 12:37:52;;;;;;;3.58;2.30;;;18.80;94.80;;;;;;5043717;28;20034;-81
2021/08/23 12:40:17;;;;;;;8.15;2.30;;;18.90;94.60;;;;;;5045873;28;20079;-81